sensor_id;sensor_type;location;lat;lon;timestamp;P1;durP1;ratioP1;P2;durP2;ratioP2
10232;SDS011;5161;48.174;11.756;2023-04-07T00:00:55;11.23;;;10.03;;
10232;SDS011;5161;48.174;11.756;2023-04-07T00:03:21;11.07;;;9.90;;
10232;SDS011;5161;48.174;11.756;2023-04-07T00:05:47;11.23;;;9.63;;
10232;SDS011;5161;48.174;11.756;2023-04-07T00:08:13;11.87;;;10.67;;
10232;SDS011;5161;48.174;11.756;2023-04-07T00:10:39;12.57;;;10.33;;
10232;SDS011;5161;48.174;11.756;2023-04-07T00:13:04;12.27;;;9.47;;
10232;SDS011;5161;48.174;11.756;2023-04-07T00:15:30;11.03;;;9.70;;
10232;SDS011;5161;48.174;11.756;2023-04-07T00:17:55;11.03;;;9.87;;
10232;SDS011;5161;48.174;11.756;2023-04-07T00:20:21;13.13;;;10.00;;
10232;SDS011;5161;48.174;11.756;2023-04-07T00:22:47;14.00;;;9.40;;
10232;SDS011;5161;48.174;11.756;2023-04-07T00:25:12;10.40;;;9.23;;
10232;SDS011;5161;48.174;11.756;2023-04-07T00:27:38;11.27;;;9.57;;
10232;SDS011;5161;48.174;11.756;2023-04-07T00:30:04;10.20;;;9.20;;
10232;SDS011;5161;48.174;11.756;2023-04-07T00:32:31;10.40;;;9.33;;
10232;SDS011;5161;48.174;11.756;2023-04-07T00:34:56;10.60;;;9.20;;
10232;SDS011;5161;48.174;11.756;2023-04-07T00:37:22;10.77;;;9.37;;
10232;SDS011;5161;48.174;11.756;2023-04-07T00:39:49;9.67;;;8.67;;
10232;SDS011;5161;48.174;11.756;2023-04-07T00:42:15;12.37;;;9.70;;
10232;SDS011;5161;48.174;11.756;2023-04-07T00:44:41;10.40;;;8.93;;
10232;SDS011;5161;48.174;11.756;2023-04-07T00:47:07;10.07;;;8.93;;
10232;SDS011;5161;48.174;11.756;2023-04-07T00:49:32;9.53;;;8.63;;
10232;SDS011;5161;48.174;11.756;2023-04-07T00:52:00;10.50;;;9.07;;
10232;SDS011;5161;48.174;11.756;2023-04-07T00:54:26;9.93;;;8.37;;
10232;SDS011;5161;48.174;11.756;2023-04-07T00:56:53;11.87;;;9.20;;
10232;SDS011;5161;48.174;11.756;2023-04-07T00:59:19;9.70;;;8.70;;
10232;SDS011;5161;48.174;11.756;2023-04-07T01:02:01;9.80;;;8.77;;
10232;SDS011;5161;48.174;11.756;2023-04-07T01:04:50;12.23;;;8.90;;
10232;SDS011;5161;48.174;11.756;2023-04-07T01:10:00;9.73;;;8.27;;
10232;SDS011;5161;48.174;11.756;2023-04-07T01:15:08;10.43;;;9.00;;
10232;SDS011;5161;48.174;11.756;2023-04-07T01:17:41;13.13;;;8.77;;
10232;SDS011;5161;48.174;11.756;2023-04-07T01:20:13;9.40;;;8.47;;
10232;SDS011;5161;48.174;11.756;2023-04-07T01:22:46;9.77;;;8.40;;
10232;SDS011;5161;48.174;11.756;2023-04-07T01:30:50;9.50;;;8.33;;
10232;SDS011;5161;48.174;11.756;2023-04-07T01:33:20;9.53;;;8.60;;
10232;SDS011;5161;48.174;11.756;2023-04-07T01:35:47;10.13;;;8.40;;
10232;SDS011;5161;48.174;11.756;2023-04-07T01:38:14;12.13;;;8.77;;
10232;SDS011;5161;48.174;11.756;2023-04-07T01:40:41;10.50;;;8.83;;
10232;SDS011;5161;48.174;11.756;2023-04-07T01:43:08;11.60;;;9.30;;
10232;SDS011;5161;48.174;11.756;2023-04-07T01:45:35;9.87;;;8.83;;
10232;SDS011;5161;48.174;11.756;2023-04-07T01:48:04;9.97;;;8.97;;
10232;SDS011;5161;48.174;11.756;2023-04-07T01:50:31;9.87;;;8.60;;
10232;SDS011;5161;48.174;11.756;2023-04-07T01:52:58;10.90;;;8.87;;
10232;SDS011;5161;48.174;11.756;2023-04-07T01:55:24;9.73;;;8.70;;
10232;SDS011;5161;48.174;11.756;2023-04-07T01:57:52;10.47;;;9.07;;
10232;SDS011;5161;48.174;11.756;2023-04-07T02:00:17;10.97;;;9.00;;
10232;SDS011;5161;48.174;11.756;2023-04-07T02:02:44;11.27;;;9.63;;
10232;SDS011;5161;48.174;11.756;2023-04-07T02:05:14;13.73;;;9.07;;
10232;SDS011;5161;48.174;11.756;2023-04-07T02:10:16;11.70;;;8.97;;
10232;SDS011;5161;48.174;11.756;2023-04-07T02:12:44;10.97;;;9.00;;
10232;SDS011;5161;48.174;11.756;2023-04-07T02:15:11;11.40;;;9.17;;
10232;SDS011;5161;48.174;11.756;2023-04-07T02:17:42;10.47;;;8.63;;
10232;SDS011;5161;48.174;11.756;2023-04-07T02:20:11;10.80;;;9.40;;
10232;SDS011;5161;48.174;11.756;2023-04-07T02:22:39;10.93;;;9.23;;
10232;SDS011;5161;48.174;11.756;2023-04-07T02:25:23;10.20;;;9.20;;
10232;SDS011;5161;48.174;11.756;2023-04-07T02:27:48;10.57;;;8.93;;
10232;SDS011;5161;48.174;11.756;2023-04-07T02:30:14;11.53;;;9.07;;
10232;SDS011;5161;48.174;11.756;2023-04-07T02:32:39;10.33;;;9.00;;
10232;SDS011;5161;48.174;11.756;2023-04-07T02:35:05;11.00;;;9.17;;
10232;SDS011;5161;48.174;11.756;2023-04-07T02:37:31;10.30;;;9.00;;
10232;SDS011;5161;48.174;11.756;2023-04-07T02:39:57;12.10;;;9.07;;
10232;SDS011;5161;48.174;11.756;2023-04-07T02:42:22;10.60;;;8.80;;
10232;SDS011;5161;48.174;11.756;2023-04-07T02:44:49;11.63;;;9.33;;
10232;SDS011;5161;48.174;11.756;2023-04-07T02:47:14;10.10;;;9.00;;
10232;SDS011;5161;48.174;11.756;2023-04-07T02:49:40;11.07;;;9.13;;
10232;SDS011;5161;48.174;11.756;2023-04-07T02:52:06;9.57;;;8.63;;
10232;SDS011;5161;48.174;11.756;2023-04-07T02:54:32;9.87;;;8.73;;
10232;SDS011;5161;48.174;11.756;2023-04-07T02:56:57;10.60;;;8.53;;
10232;SDS011;5161;48.174;11.756;2023-04-07T02:59:23;9.67;;;8.40;;
10232;SDS011;5161;48.174;11.756;2023-04-07T03:01:48;11.83;;;8.87;;
10232;SDS011;5161;48.174;11.756;2023-04-07T03:04:14;9.83;;;8.33;;
10232;SDS011;5161;48.174;11.756;2023-04-07T03:06:40;9.47;;;8.23;;
10232;SDS011;5161;48.174;11.756;2023-04-07T03:09:06;9.47;;;8.43;;
10232;SDS011;5161;48.174;11.756;2023-04-07T03:11:31;10.10;;;8.27;;
10232;SDS011;5161;48.174;11.756;2023-04-07T03:13:57;10.97;;;8.90;;
10232;SDS011;5161;48.174;11.756;2023-04-07T03:16:22;9.93;;;8.93;;
10232;SDS011;5161;48.174;11.756;2023-04-07T03:18:48;10.13;;;8.67;;
10232;SDS011;5161;48.174;11.756;2023-04-07T03:21:13;11.33;;;8.50;;
10232;SDS011;5161;48.174;11.756;2023-04-07T03:23:39;11.50;;;9.03;;
10232;SDS011;5161;48.174;11.756;2023-04-07T03:26:05;10.07;;;8.93;;
10232;SDS011;5161;48.174;11.756;2023-04-07T03:28:30;9.77;;;8.07;;
10232;SDS011;5161;48.174;11.756;2023-04-07T03:30:56;8.40;;;7.20;;
10232;SDS011;5161;48.174;11.756;2023-04-07T03:33:21;8.80;;;7.00;;
10232;SDS011;5161;48.174;11.756;2023-04-07T03:35:47;8.10;;;6.80;;
10232;SDS011;5161;48.174;11.756;2023-04-07T03:38:12;8.00;;;6.97;;
10232;SDS011;5161;48.174;11.756;2023-04-07T03:40:38;7.40;;;6.20;;
10232;SDS011;5161;48.174;11.756;2023-04-07T03:43:04;7.87;;;6.33;;
10232;SDS011;5161;48.174;11.756;2023-04-07T03:45:30;7.03;;;6.33;;
10232;SDS011;5161;48.174;11.756;2023-04-07T03:47:57;6.80;;;6.10;;
10232;SDS011;5161;48.174;11.756;2023-04-07T03:50:23;7.67;;;6.87;;
10232;SDS011;5161;48.174;11.756;2023-04-07T03:52:48;7.60;;;6.60;;
10232;SDS011;5161;48.174;11.756;2023-04-07T03:55:14;8.30;;;6.47;;
10232;SDS011;5161;48.174;11.756;2023-04-07T03:57:39;7.00;;;6.27;;
10232;SDS011;5161;48.174;11.756;2023-04-07T04:00:05;7.60;;;6.80;;
10232;SDS011;5161;48.174;11.756;2023-04-07T04:02:31;7.97;;;6.77;;
10232;SDS011;5161;48.174;11.756;2023-04-07T04:04:57;7.47;;;6.77;;
10232;SDS011;5161;48.174;11.756;2023-04-07T04:07:23;7.80;;;6.93;;
10232;SDS011;5161;48.174;11.756;2023-04-07T04:09:50;7.33;;;6.63;;
10232;SDS011;5161;48.174;11.756;2023-04-07T04:12:15;8.10;;;7.30;;
10232;SDS011;5161;48.174;11.756;2023-04-07T04:14:41;7.50;;;6.70;;
10232;SDS011;5161;48.174;11.756;2023-04-07T04:17:06;7.53;;;6.80;;
10232;SDS011;5161;48.174;11.756;2023-04-07T04:19:32;8.00;;;7.20;;
10232;SDS011;5161;48.174;11.756;2023-04-07T04:21:58;7.73;;;6.93;;
10232;SDS011;5161;48.174;11.756;2023-04-07T04:24:23;7.97;;;6.70;;
10232;SDS011;5161;48.174;11.756;2023-04-07T04:26:49;8.17;;;7.27;;
10232;SDS011;5161;48.174;11.756;2023-04-07T04:29:14;7.97;;;7.13;;
10232;SDS011;5161;48.174;11.756;2023-04-07T04:31:40;7.70;;;6.90;;
10232;SDS011;5161;48.174;11.756;2023-04-07T04:34:06;8.07;;;7.27;;
10232;SDS011;5161;48.174;11.756;2023-04-07T04:36:31;8.17;;;7.27;;
10232;SDS011;5161;48.174;11.756;2023-04-07T04:38:57;7.80;;;7.10;;
10232;SDS011;5161;48.174;11.756;2023-04-07T04:41:22;8.03;;;7.10;;
10232;SDS011;5161;48.174;11.756;2023-04-07T04:43:48;8.33;;;7.50;;
10232;SDS011;5161;48.174;11.756;2023-04-07T04:46:13;8.87;;;7.60;;
10232;SDS011;5161;48.174;11.756;2023-04-07T04:48:41;8.40;;;7.50;;
10232;SDS011;5161;48.174;11.756;2023-04-07T04:51:06;8.80;;;7.90;;
10232;SDS011;5161;48.174;11.756;2023-04-07T04:53:32;8.90;;;7.50;;
10232;SDS011;5161;48.174;11.756;2023-04-07T04:55:57;9.87;;;8.00;;
10232;SDS011;5161;48.174;11.756;2023-04-07T04:58:23;8.87;;;7.20;;
10232;SDS011;5161;48.174;11.756;2023-04-07T05:00:48;8.47;;;6.97;;
10232;SDS011;5161;48.174;11.756;2023-04-07T05:03:21;7.40;;;6.70;;
10232;SDS011;5161;48.174;11.756;2023-04-07T05:05:47;9.13;;;7.43;;
10232;SDS011;5161;48.174;11.756;2023-04-07T05:08:13;8.30;;;7.23;;
10232;SDS011;5161;48.174;11.756;2023-04-07T05:10:38;8.07;;;7.00;;
10232;SDS011;5161;48.174;11.756;2023-04-07T05:13:05;8.23;;;7.13;;
10232;SDS011;5161;48.174;11.756;2023-04-07T05:15:30;8.70;;;7.70;;
10232;SDS011;5161;48.174;11.756;2023-04-07T05:17:58;8.20;;;7.40;;
10232;SDS011;5161;48.174;11.756;2023-04-07T05:20:24;8.10;;;7.10;;
10232;SDS011;5161;48.174;11.756;2023-04-07T05:22:50;9.40;;;7.40;;
10232;SDS011;5161;48.174;11.756;2023-04-07T05:25:15;9.00;;;7.93;;
10232;SDS011;5161;48.174;11.756;2023-04-07T05:27:41;8.33;;;7.47;;
10232;SDS011;5161;48.174;11.756;2023-04-07T05:30:07;9.97;;;7.87;;
10232;SDS011;5161;48.174;11.756;2023-04-07T05:32:33;8.27;;;7.40;;
10232;SDS011;5161;48.174;11.756;2023-04-07T05:34:58;10.17;;;7.80;;
10232;SDS011;5161;48.174;11.756;2023-04-07T05:37:24;8.50;;;7.57;;
10232;SDS011;5161;48.174;11.756;2023-04-07T05:39:49;8.97;;;8.07;;
10232;SDS011;5161;48.174;11.756;2023-04-07T05:42:15;9.00;;;7.90;;
10232;SDS011;5161;48.174;11.756;2023-04-07T05:44:41;9.53;;;8.00;;
10232;SDS011;5161;48.174;11.756;2023-04-07T05:47:06;10.17;;;8.27;;
10232;SDS011;5161;48.174;11.756;2023-04-07T05:49:36;9.10;;;8.20;;
10232;SDS011;5161;48.174;11.756;2023-04-07T05:52:01;10.70;;;8.73;;
10232;SDS011;5161;48.174;11.756;2023-04-07T05:54:28;9.43;;;8.17;;
10232;SDS011;5161;48.174;11.756;2023-04-07T05:56:53;9.30;;;8.30;;
10232;SDS011;5161;48.174;11.756;2023-04-07T05:59:20;9.07;;;8.10;;
10232;SDS011;5161;48.174;11.756;2023-04-07T06:01:45;9.00;;;7.83;;
10232;SDS011;5161;48.174;11.756;2023-04-07T06:04:11;9.30;;;8.20;;
10232;SDS011;5161;48.174;11.756;2023-04-07T06:06:37;10.47;;;8.27;;
10232;SDS011;5161;48.174;11.756;2023-04-07T06:09:02;8.90;;;8.00;;
10232;SDS011;5161;48.174;11.756;2023-04-07T06:11:31;9.87;;;8.37;;
10232;SDS011;5161;48.174;11.756;2023-04-07T06:13:56;9.37;;;8.40;;
10232;SDS011;5161;48.174;11.756;2023-04-07T06:16:22;8.97;;;8.07;;
10232;SDS011;5161;48.174;11.756;2023-04-07T06:18:48;9.20;;;8.10;;
10232;SDS011;5161;48.174;11.756;2023-04-07T06:21:13;9.47;;;8.47;;
10232;SDS011;5161;48.174;11.756;2023-04-07T06:23:39;9.50;;;8.50;;
10232;SDS011;5161;48.174;11.756;2023-04-07T06:26:05;9.20;;;7.97;;
10232;SDS011;5161;48.174;11.756;2023-04-07T06:28:34;9.47;;;8.47;;
10232;SDS011;5161;48.174;11.756;2023-04-07T06:30:59;9.23;;;8.23;;
10232;SDS011;5161;48.174;11.756;2023-04-07T06:33:25;9.63;;;8.63;;
10232;SDS011;5161;48.174;11.756;2023-04-07T06:35:52;10.03;;;8.97;;
10232;SDS011;5161;48.174;11.756;2023-04-07T06:38:18;9.13;;;8.20;;
10232;SDS011;5161;48.174;11.756;2023-04-07T06:40:43;9.33;;;8.33;;
10232;SDS011;5161;48.174;11.756;2023-04-07T06:43:09;9.27;;;8.27;;
10232;SDS011;5161;48.174;11.756;2023-04-07T06:45:34;11.20;;;8.87;;
10232;SDS011;5161;48.174;11.756;2023-04-07T06:48:00;11.70;;;8.47;;
10232;SDS011;5161;48.174;11.756;2023-04-07T06:50:26;11.07;;;8.60;;
10232;SDS011;5161;48.174;11.756;2023-04-07T06:52:51;9.73;;;8.53;;
10232;SDS011;5161;48.174;11.756;2023-04-07T06:55:17;9.40;;;8.40;;
10232;SDS011;5161;48.174;11.756;2023-04-07T06:57:42;10.13;;;8.37;;
10232;SDS011;5161;48.174;11.756;2023-04-07T07:00:08;10.60;;;8.77;;
10232;SDS011;5161;48.174;11.756;2023-04-07T07:02:34;11.77;;;8.53;;
10232;SDS011;5161;48.174;11.756;2023-04-07T07:05:00;9.93;;;8.50;;
10232;SDS011;5161;48.174;11.756;2023-04-07T07:07:26;9.50;;;7.83;;
10232;SDS011;5161;48.174;11.756;2023-04-07T07:09:52;10.30;;;8.57;;
10232;SDS011;5161;48.174;11.756;2023-04-07T07:12:18;10.73;;;8.83;;
10232;SDS011;5161;48.174;11.756;2023-04-07T07:14:43;10.17;;;8.67;;
10232;SDS011;5161;48.174;11.756;2023-04-07T07:17:09;10.53;;;8.83;;
10232;SDS011;5161;48.174;11.756;2023-04-07T07:19:34;10.93;;;9.00;;
10232;SDS011;5161;48.174;11.756;2023-04-07T07:22:01;9.37;;;8.37;;
10232;SDS011;5161;48.174;11.756;2023-04-07T07:24:28;11.30;;;9.00;;
10232;SDS011;5161;48.174;11.756;2023-04-07T07:26:54;9.80;;;8.80;;
10232;SDS011;5161;48.174;11.756;2023-04-07T07:29:21;10.07;;;9.07;;
10232;SDS011;5161;48.174;11.756;2023-04-07T07:31:46;10.47;;;8.87;;
10232;SDS011;5161;48.174;11.756;2023-04-07T07:34:12;10.80;;;9.40;;
10232;SDS011;5161;48.174;11.756;2023-04-07T07:36:38;10.13;;;9.00;;
10232;SDS011;5161;48.174;11.756;2023-04-07T07:39:03;10.17;;;9.00;;
10232;SDS011;5161;48.174;11.756;2023-04-07T07:41:30;10.13;;;9.03;;
10232;SDS011;5161;48.174;11.756;2023-04-07T07:43:55;10.40;;;9.30;;
10232;SDS011;5161;48.174;11.756;2023-04-07T07:46:21;11.47;;;9.43;;
10232;SDS011;5161;48.174;11.756;2023-04-07T07:48:48;10.37;;;9.27;;
10232;SDS011;5161;48.174;11.756;2023-04-07T07:51:14;12.03;;;9.23;;
10232;SDS011;5161;48.174;11.756;2023-04-07T07:53:39;10.67;;;8.97;;
10232;SDS011;5161;48.174;11.756;2023-04-07T07:56:05;9.60;;;8.60;;
10232;SDS011;5161;48.174;11.756;2023-04-07T07:58:30;9.77;;;8.77;;
10232;SDS011;5161;48.174;11.756;2023-04-07T08:00:56;10.17;;;9.17;;
10232;SDS011;5161;48.174;11.756;2023-04-07T08:03:22;10.17;;;9.17;;
10232;SDS011;5161;48.174;11.756;2023-04-07T08:05:48;13.13;;;9.50;;
10232;SDS011;5161;48.174;11.756;2023-04-07T08:08:14;10.07;;;8.97;;
10232;SDS011;5161;48.174;11.756;2023-04-07T08:10:40;9.97;;;8.93;;
10232;SDS011;5161;48.174;11.756;2023-04-07T08:13:05;11.80;;;9.23;;
10232;SDS011;5161;48.174;11.756;2023-04-07T08:15:31;10.93;;;8.90;;
10232;SDS011;5161;48.174;11.756;2023-04-07T08:17:57;9.73;;;8.73;;
10232;SDS011;5161;48.174;11.756;2023-04-07T08:20:24;10.40;;;9.07;;
10232;SDS011;5161;48.174;11.756;2023-04-07T08:22:50;10.53;;;9.10;;
10232;SDS011;5161;48.174;11.756;2023-04-07T08:25:16;9.40;;;8.47;;
10232;SDS011;5161;48.174;11.756;2023-04-07T08:27:43;12.43;;;9.07;;
10232;SDS011;5161;48.174;11.756;2023-04-07T08:30:08;10.33;;;8.90;;
10232;SDS011;5161;48.174;11.756;2023-04-07T08:32:41;10.00;;;9.00;;
10232;SDS011;5161;48.174;11.756;2023-04-07T08:35:08;10.43;;;9.30;;
10232;SDS011;5161;48.174;11.756;2023-04-07T08:37:33;11.37;;;9.03;;
10232;SDS011;5161;48.174;11.756;2023-04-07T08:40:00;9.53;;;8.53;;
10232;SDS011;5161;48.174;11.756;2023-04-07T08:42:28;12.10;;;9.33;;
10232;SDS011;5161;48.174;11.756;2023-04-07T08:44:56;9.73;;;8.73;;
10232;SDS011;5161;48.174;11.756;2023-04-07T08:47:26;10.93;;;8.67;;
10232;SDS011;5161;48.174;11.756;2023-04-07T08:49:56;9.50;;;8.50;;
10232;SDS011;5161;48.174;11.756;2023-04-07T08:52:22;10.60;;;8.70;;
10232;SDS011;5161;48.174;11.756;2023-04-07T08:54:56;11.17;;;8.83;;
10232;SDS011;5161;48.174;11.756;2023-04-07T08:57:25;9.20;;;8.30;;
10232;SDS011;5161;48.174;11.756;2023-04-07T08:59:54;10.07;;;9.00;;
10232;SDS011;5161;48.174;11.756;2023-04-07T09:02:19;10.63;;;9.27;;
10232;SDS011;5161;48.174;11.756;2023-04-07T09:04:46;11.03;;;8.90;;
10232;SDS011;5161;48.174;11.756;2023-04-07T09:07:12;11.00;;;9.33;;
10232;SDS011;5161;48.174;11.756;2023-04-07T09:09:37;11.00;;;9.37;;
10232;SDS011;5161;48.174;11.756;2023-04-07T09:12:03;11.40;;;8.93;;
10232;SDS011;5161;48.174;11.756;2023-04-07T09:14:28;10.43;;;8.73;;
10232;SDS011;5161;48.174;11.756;2023-04-07T09:16:54;10.63;;;9.23;;
10232;SDS011;5161;48.174;11.756;2023-04-07T09:19:20;11.17;;;9.20;;
10232;SDS011;5161;48.174;11.756;2023-04-07T09:21:47;10.60;;;9.40;;
10232;SDS011;5161;48.174;11.756;2023-04-07T09:24:21;9.50;;;8.50;;
10232;SDS011;5161;48.174;11.756;2023-04-07T09:27:13;13.43;;;9.03;;
10232;SDS011;5161;48.174;11.756;2023-04-07T09:29:41;10.30;;;8.40;;
10232;SDS011;5161;48.174;11.756;2023-04-07T09:32:08;8.97;;;8.07;;
10232;SDS011;5161;48.174;11.756;2023-04-07T09:34:35;10.60;;;8.63;;
10232;SDS011;5161;48.174;11.756;2023-04-07T09:37:02;10.77;;;8.40;;
10232;SDS011;5161;48.174;11.756;2023-04-07T09:39:30;10.67;;;8.50;;
10232;SDS011;5161;48.174;11.756;2023-04-07T09:41:56;9.30;;;8.40;;
10232;SDS011;5161;48.174;11.756;2023-04-07T09:44:22;9.33;;;8.37;;
10232;SDS011;5161;48.174;11.756;2023-04-07T09:49:14;11.77;;;9.47;;
10232;SDS011;5161;48.174;11.756;2023-04-07T09:51:53;10.00;;;8.80;;
10232;SDS011;5161;48.174;11.756;2023-04-07T09:57:01;9.53;;;8.53;;
10232;SDS011;5161;48.174;11.756;2023-04-07T09:59:35;9.60;;;8.53;;
10232;SDS011;5161;48.174;11.756;2023-04-07T10:02:02;9.50;;;8.40;;
10232;SDS011;5161;48.174;11.756;2023-04-07T10:04:28;9.43;;;8.50;;
10232;SDS011;5161;48.174;11.756;2023-04-07T10:06:53;10.57;;;8.97;;
10232;SDS011;5161;48.174;11.756;2023-04-07T10:09:21;9.50;;;8.50;;
10232;SDS011;5161;48.174;11.756;2023-04-07T10:11:49;9.37;;;8.40;;
10232;SDS011;5161;48.174;11.756;2023-04-07T10:14:15;9.83;;;8.83;;
10232;SDS011;5161;48.174;11.756;2023-04-07T10:16:42;9.87;;;8.63;;
10232;SDS011;5161;48.174;11.756;2023-04-07T10:19:08;10.87;;;8.63;;
10232;SDS011;5161;48.174;11.756;2023-04-07T10:21:34;10.13;;;9.13;;
10232;SDS011;5161;48.174;11.756;2023-04-07T10:26:32;10.40;;;9.30;;
10232;SDS011;5161;48.174;11.756;2023-04-07T10:29:05;10.30;;;9.27;;
10232;SDS011;5161;48.174;11.756;2023-04-07T10:31:35;10.27;;;9.23;;
10232;SDS011;5161;48.174;11.756;2023-04-07T10:34:02;9.90;;;8.90;;
10232;SDS011;5161;48.174;11.756;2023-04-07T10:36:29;10.33;;;9.13;;
10232;SDS011;5161;48.174;11.756;2023-04-07T10:41:37;10.50;;;9.13;;
10232;SDS011;5161;48.174;11.756;2023-04-07T10:44:05;11.17;;;9.63;;
10232;SDS011;5161;48.174;11.756;2023-04-07T10:49:07;12.07;;;8.77;;
10232;SDS011;5161;48.174;11.756;2023-04-07T10:51:34;9.93;;;9.00;;
10232;SDS011;5161;48.174;11.756;2023-04-07T10:54:15;9.60;;;8.57;;
10232;SDS011;5161;48.174;11.756;2023-04-07T11:00:15;11.67;;;8.60;;
10232;SDS011;5161;48.174;11.756;2023-04-07T11:02:34;9.37;;;8.33;;
10232;SDS011;5161;48.174;11.756;2023-04-07T11:05:02;11.50;;;8.67;;
10232;SDS011;5161;48.174;11.756;2023-04-07T11:07:48;9.63;;;8.63;;
10232;SDS011;5161;48.174;11.756;2023-04-07T11:10:15;9.83;;;8.83;;
10232;SDS011;5161;48.174;11.756;2023-04-07T11:12:43;9.60;;;8.63;;
10232;SDS011;5161;48.174;11.756;2023-04-07T11:15:19;11.70;;;8.87;;
10232;SDS011;5161;48.174;11.756;2023-04-07T11:17:46;12.13;;;9.57;;
10232;SDS011;5161;48.174;11.756;2023-04-07T11:21:16;10.00;;;9.00;;
10232;SDS011;5161;48.174;11.756;2023-04-07T11:23:21;10.03;;;9.03;;
10232;SDS011;5161;48.174;11.756;2023-04-07T11:25:49;10.83;;;9.10;;
10232;SDS011;5161;48.174;11.756;2023-04-07T11:28:17;9.97;;;8.97;;
10232;SDS011;5161;48.174;11.756;2023-04-07T11:30:43;10.00;;;9.00;;
10232;SDS011;5161;48.174;11.756;2023-04-07T11:33:29;10.10;;;9.10;;
10232;SDS011;5161;48.174;11.756;2023-04-07T11:36:00;10.80;;;9.73;;
10232;SDS011;5161;48.174;11.756;2023-04-07T11:38:44;10.70;;;9.60;;
10232;SDS011;5161;48.174;11.756;2023-04-07T11:41:12;10.40;;;9.40;;
10232;SDS011;5161;48.174;11.756;2023-04-07T11:43:39;10.90;;;9.80;;
10232;SDS011;5161;48.174;11.756;2023-04-07T11:46:12;11.03;;;9.90;;
10232;SDS011;5161;48.174;11.756;2023-04-07T11:48:39;11.63;;;10.20;;
10232;SDS011;5161;48.174;11.756;2023-04-07T11:51:14;10.73;;;9.67;;
10232;SDS011;5161;48.174;11.756;2023-04-07T11:53:41;10.43;;;9.40;;
10232;SDS011;5161;48.174;11.756;2023-04-07T11:56:07;11.20;;;10.07;;
10232;SDS011;5161;48.174;11.756;2023-04-07T11:58:36;10.30;;;9.20;;
10232;SDS011;5161;48.174;11.756;2023-04-07T12:01:03;10.37;;;9.27;;
10232;SDS011;5161;48.174;11.756;2023-04-07T12:03:36;10.40;;;9.30;;
10232;SDS011;5161;48.174;11.756;2023-04-07T12:06:02;10.47;;;9.47;;
10232;SDS011;5161;48.174;11.756;2023-04-07T12:08:38;10.70;;;9.60;;
10232;SDS011;5161;48.174;11.756;2023-04-07T12:11:05;12.13;;;9.13;;
10232;SDS011;5161;48.174;11.756;2023-04-07T12:13:32;11.63;;;10.43;;
10232;SDS011;5161;48.174;11.756;2023-04-07T12:15:58;11.30;;;10.10;;
10232;SDS011;5161;48.174;11.756;2023-04-07T12:18:24;10.50;;;9.40;;
10232;SDS011;5161;48.174;11.756;2023-04-07T12:20:51;12.20;;;9.87;;
10232;SDS011;5161;48.174;11.756;2023-04-07T12:23:16;10.40;;;9.40;;
10232;SDS011;5161;48.174;11.756;2023-04-07T12:25:42;11.43;;;10.23;;
10232;SDS011;5161;48.174;11.756;2023-04-07T12:28:07;13.63;;;10.03;;
10232;SDS011;5161;48.174;11.756;2023-04-07T12:30:33;11.03;;;9.93;;
10232;SDS011;5161;48.174;11.756;2023-04-07T12:32:59;11.23;;;10.07;;
10232;SDS011;5161;48.174;11.756;2023-04-07T12:35:24;10.53;;;9.30;;
10232;SDS011;5161;48.174;11.756;2023-04-07T12:37:50;11.00;;;9.80;;
10232;SDS011;5161;48.174;11.756;2023-04-07T12:40:17;10.77;;;9.67;;
10232;SDS011;5161;48.174;11.756;2023-04-07T12:42:42;11.20;;;10.10;;
10232;SDS011;5161;48.174;11.756;2023-04-07T12:45:08;11.00;;;9.87;;
10232;SDS011;5161;48.174;11.756;2023-04-07T12:47:34;11.17;;;10.13;;
10232;SDS011;5161;48.174;11.756;2023-04-07T12:50:00;11.50;;;9.87;;
10232;SDS011;5161;48.174;11.756;2023-04-07T12:52:26;10.53;;;9.43;;
10232;SDS011;5161;48.174;11.756;2023-04-07T12:54:51;11.20;;;10.07;;
10232;SDS011;5161;48.174;11.756;2023-04-07T12:57:17;12.07;;;9.63;;
10232;SDS011;5161;48.174;11.756;2023-04-07T12:59:43;10.67;;;9.53;;
10232;SDS011;5161;48.174;11.756;2023-04-07T13:02:09;11.30;;;9.57;;
10232;SDS011;5161;48.174;11.756;2023-04-07T13:04:37;11.27;;;9.60;;
10232;SDS011;5161;48.174;11.756;2023-04-07T13:07:04;11.00;;;9.90;;
10232;SDS011;5161;48.174;11.756;2023-04-07T13:09:30;11.73;;;10.47;;
10232;SDS011;5161;48.174;11.756;2023-04-07T13:11:57;12.00;;;9.77;;
10232;SDS011;5161;48.174;11.756;2023-04-07T13:14:23;11.10;;;10.00;;
10232;SDS011;5161;48.174;11.756;2023-04-07T13:16:48;11.67;;;10.47;;
10232;SDS011;5161;48.174;11.756;2023-04-07T13:19:14;11.23;;;10.03;;
10232;SDS011;5161;48.174;11.756;2023-04-07T13:21:40;11.57;;;10.20;;
10232;SDS011;5161;48.174;11.756;2023-04-07T13:24:05;12.63;;;10.33;;
10232;SDS011;5161;48.174;11.756;2023-04-07T13:26:31;10.87;;;9.77;;
10232;SDS011;5161;48.174;11.756;2023-04-07T13:28:57;11.60;;;10.47;;
10232;SDS011;5161;48.174;11.756;2023-04-07T13:31:22;12.10;;;9.90;;
10232;SDS011;5161;48.174;11.756;2023-04-07T13:33:48;12.07;;;10.17;;
10232;SDS011;5161;48.174;11.756;2023-04-07T13:36:13;11.13;;;10.03;;
10232;SDS011;5161;48.174;11.756;2023-04-07T13:38:39;11.47;;;10.27;;
10232;SDS011;5161;48.174;11.756;2023-04-07T13:41:06;12.30;;;10.07;;
10232;SDS011;5161;48.174;11.756;2023-04-07T13:43:31;11.07;;;10.00;;
10232;SDS011;5161;48.174;11.756;2023-04-07T13:45:57;12.27;;;10.10;;
10232;SDS011;5161;48.174;11.756;2023-04-07T13:48:23;11.70;;;10.50;;
10232;SDS011;5161;48.174;11.756;2023-04-07T13:50:48;12.00;;;10.73;;
10232;SDS011;5161;48.174;11.756;2023-04-07T13:53:14;12.40;;;10.40;;
10232;SDS011;5161;48.174;11.756;2023-04-07T13:55:39;11.30;;;9.90;;
10232;SDS011;5161;48.174;11.756;2023-04-07T13:58:05;11.00;;;9.90;;
10232;SDS011;5161;48.174;11.756;2023-04-07T14:00:31;12.57;;;11.00;;
10232;SDS011;5161;48.174;11.756;2023-04-07T14:02:59;10.90;;;9.80;;
10232;SDS011;5161;48.174;11.756;2023-04-07T14:05:25;11.43;;;9.67;;
10232;SDS011;5161;48.174;11.756;2023-04-07T14:07:51;12.00;;;10.73;;
10232;SDS011;5161;48.174;11.756;2023-04-07T14:10:16;11.90;;;10.60;;
10232;SDS011;5161;48.174;11.756;2023-04-07T14:12:42;10.10;;;9.10;;
10232;SDS011;5161;48.174;11.756;2023-04-07T14:15:08;10.10;;;9.10;;
10232;SDS011;5161;48.174;11.756;2023-04-07T14:17:34;10.27;;;8.90;;
10232;SDS011;5161;48.174;11.756;2023-04-07T14:19:59;10.33;;;8.57;;
10232;SDS011;5161;48.174;11.756;2023-04-07T14:22:25;9.27;;;8.30;;
10232;SDS011;5161;48.174;11.756;2023-04-07T14:24:50;13.77;;;9.60;;
10232;SDS011;5161;48.174;11.756;2023-04-07T14:27:16;10.30;;;9.30;;
10232;SDS011;5161;48.174;11.756;2023-04-07T14:29:45;10.97;;;9.70;;
10232;SDS011;5161;48.174;11.756;2023-04-07T14:32:11;12.17;;;9.80;;
10232;SDS011;5161;48.174;11.756;2023-04-07T14:34:37;10.70;;;9.60;;
10232;SDS011;5161;48.174;11.756;2023-04-07T14:37:03;12.40;;;11.10;;
10232;SDS011;5161;48.174;11.756;2023-04-07T14:39:28;18.43;;;15.70;;
10232;SDS011;5161;48.174;11.756;2023-04-07T14:41:54;13.13;;;10.50;;
10232;SDS011;5161;48.174;11.756;2023-04-07T14:44:19;14.33;;;12.87;;
10232;SDS011;5161;48.174;11.756;2023-04-07T14:46:46;12.33;;;10.93;;
10232;SDS011;5161;48.174;11.756;2023-04-07T14:49:12;13.47;;;12.17;;
10232;SDS011;5161;48.174;11.756;2023-04-07T14:51:39;21.90;;;19.60;;
10232;SDS011;5161;48.174;11.756;2023-04-07T14:54:05;13.50;;;12.10;;
10232;SDS011;5161;48.174;11.756;2023-04-07T14:56:30;12.40;;;11.10;;
10232;SDS011;5161;48.174;11.756;2023-04-07T14:58:56;11.10;;;9.80;;
10232;SDS011;5161;48.174;11.756;2023-04-07T15:01:22;12.13;;;10.53;;
10232;SDS011;5161;48.174;11.756;2023-04-07T15:03:47;9.63;;;8.73;;
10232;SDS011;5161;48.174;11.756;2023-04-07T15:06:15;11.13;;;9.40;;